sensor_id;sensor_type;location;lat;lon;timestamp;P1;durP1;ratioP1;P2;durP2;ratioP2
80508;SDS011;69838;52.602;13.434;2024-03-07T00:00:38;82.40;;;26.48;;
80508;SDS011;69838;52.602;13.434;2024-03-07T00:01:25;81.50;;;28.33;;
80508;SDS011;69838;52.602;13.434;2024-03-07T00:02:11;87.97;;;28.63;;
80508;SDS011;69838;52.602;13.434;2024-03-07T00:02:57;84.25;;;29.27;;
80508;SDS011;69838;52.602;13.434;2024-03-07T00:03:43;76.50;;;27.30;;
80508;SDS011;69838;52.602;13.434;2024-03-07T00:04:29;85.07;;;29.23;;
80508;SDS011;69838;52.602;13.434;2024-03-07T00:05:15;81.90;;;25.85;;
80508;SDS011;69838;52.602;13.434;2024-03-07T00:06:02;83.47;;;27.75;;
80508;SDS011;69838;52.602;13.434;2024-03-07T00:06:48;80.80;;;28.55;;
80508;SDS011;69838;52.602;13.434;2024-03-07T00:07:33;78.60;;;27.38;;
80508;SDS011;69838;52.602;13.434;2024-03-07T00:08:20;79.18;;;28.25;;
80508;SDS011;69838;52.602;13.434;2024-03-07T00:09:06;78.45;;;26.98;;
80508;SDS011;69838;52.602;13.434;2024-03-07T00:09:56;80.43;;;25.70;;
80508;SDS011;69838;52.602;13.434;2024-03-07T00:10:42;79.70;;;27.52;;
80508;SDS011;69838;52.602;13.434;2024-03-07T00:11:29;81.60;;;27.05;;
80508;SDS011;69838;52.602;13.434;2024-03-07T00:12:15;79.90;;;28.58;;
80508;SDS011;69838;52.602;13.434;2024-03-07T00:13:01;81.78;;;28.63;;
80508;SDS011;69838;52.602;13.434;2024-03-07T00:13:48;82.65;;;28.38;;
80508;SDS011;69838;52.602;13.434;2024-03-07T00:14:34;85.30;;;27.60;;
80508;SDS011;69838;52.602;13.434;2024-03-07T00:15:20;79.65;;;28.52;;
80508;SDS011;69838;52.602;13.434;2024-03-07T00:16:06;76.22;;;28.45;;
80508;SDS011;69838;52.602;13.434;2024-03-07T00:16:54;68.40;;;26.40;;
80508;SDS011;69838;52.602;13.434;2024-03-07T00:17:41;81.43;;;28.77;;
80508;SDS011;69838;52.602;13.434;2024-03-07T00:18:26;78.45;;;28.00;;
80508;SDS011;69838;52.602;13.434;2024-03-07T00:19:12;93.60;;;29.88;;
80508;SDS011;69838;52.602;13.434;2024-03-07T00:20:00;70.68;;;26.00;;
80508;SDS011;69838;52.602;13.434;2024-03-07T00:20:45;75.38;;;27.60;;
80508;SDS011;69838;52.602;13.434;2024-03-07T00:21:31;83.32;;;26.52;;
80508;SDS011;69838;52.602;13.434;2024-03-07T00:22:17;82.13;;;28.77;;
80508;SDS011;69838;52.602;13.434;2024-03-07T00:23:02;80.30;;;28.33;;
80508;SDS011;69838;52.602;13.434;2024-03-07T00:23:48;87.20;;;29.15;;
80508;SDS011;69838;52.602;13.434;2024-03-07T00:24:34;76.32;;;28.35;;
80508;SDS011;69838;52.602;13.434;2024-03-07T00:25:22;82.68;;;28.42;;
80508;SDS011;69838;52.602;13.434;2024-03-07T00:26:08;77.35;;;29.95;;
80508;SDS011;69838;52.602;13.434;2024-03-07T00:26:54;79.28;;;28.52;;
80508;SDS011;69838;52.602;13.434;2024-03-07T00:27:39;83.93;;;28.02;;
80508;SDS011;69838;52.602;13.434;2024-03-07T00:28:25;76.47;;;27.50;;
80508;SDS011;69838;52.602;13.434;2024-03-07T00:29:17;82.30;;;27.85;;
80508;SDS011;69838;52.602;13.434;2024-03-07T00:30:03;79.97;;;26.63;;
80508;SDS011;69838;52.602;13.434;2024-03-07T00:30:50;79.40;;;26.85;;
80508;SDS011;69838;52.602;13.434;2024-03-07T00:31:36;81.93;;;28.98;;
80508;SDS011;69838;52.602;13.434;2024-03-07T00:32:22;78.07;;;27.63;;
80508;SDS011;69838;52.602;13.434;2024-03-07T00:33:08;75.72;;;27.58;;
80508;SDS011;69838;52.602;13.434;2024-03-07T00:33:54;78.88;;;27.60;;
80508;SDS011;69838;52.602;13.434;2024-03-07T00:34:41;80.10;;;28.08;;
80508;SDS011;69838;52.602;13.434;2024-03-07T00:35:27;83.53;;;28.08;;
80508;SDS011;69838;52.602;13.434;2024-03-07T00:36:13;69.75;;;28.13;;
80508;SDS011;69838;52.602;13.434;2024-03-07T00:36:58;77.80;;;27.10;;
80508;SDS011;69838;52.602;13.434;2024-03-07T00:37:44;80.20;;;27.55;;
80508;SDS011;69838;52.602;13.434;2024-03-07T00:38:31;75.68;;;26.52;;
80508;SDS011;69838;52.602;13.434;2024-03-07T00:39:16;85.50;;;27.48;;
80508;SDS011;69838;52.602;13.434;2024-03-07T00:40:03;79.40;;;26.70;;
80508;SDS011;69838;52.602;13.434;2024-03-07T00:40:52;70.80;;;27.27;;
80508;SDS011;69838;52.602;13.434;2024-03-07T00:41:38;76.35;;;26.52;;
80508;SDS011;69838;52.602;13.434;2024-03-07T00:42:23;78.05;;;28.27;;
80508;SDS011;69838;52.602;13.434;2024-03-07T00:43:09;78.75;;;28.20;;
80508;SDS011;69838;52.602;13.434;2024-03-07T00:43:55;80.30;;;28.15;;
80508;SDS011;69838;52.602;13.434;2024-03-07T00:44:41;77.47;;;28.05;;
80508;SDS011;69838;52.602;13.434;2024-03-07T00:45:28;85.65;;;28.25;;
80508;SDS011;69838;52.602;13.434;2024-03-07T00:46:13;77.55;;;27.38;;
80508;SDS011;69838;52.602;13.434;2024-03-07T00:46:59;76.88;;;27.17;;
80508;SDS011;69838;52.602;13.434;2024-03-07T00:47:45;78.30;;;27.20;;
80508;SDS011;69838;52.602;13.434;2024-03-07T00:48:30;79.80;;;27.48;;
80508;SDS011;69838;52.602;13.434;2024-03-07T00:49:16;82.65;;;29.05;;
80508;SDS011;69838;52.602;13.434;2024-03-07T00:50:02;81.70;;;27.38;;
80508;SDS011;69838;52.602;13.434;2024-03-07T00:50:48;82.75;;;29.35;;
80508;SDS011;69838;52.602;13.434;2024-03-07T00:51:34;72.78;;;28.70;;
80508;SDS011;69838;52.602;13.434;2024-03-07T00:52:20;78.57;;;28.35;;
80508;SDS011;69838;52.602;13.434;2024-03-07T00:53:05;76.60;;;27.88;;
80508;SDS011;69838;52.602;13.434;2024-03-07T00:53:51;72.60;;;27.23;;
80508;SDS011;69838;52.602;13.434;2024-03-07T00:54:37;81.25;;;27.35;;
80508;SDS011;69838;52.602;13.434;2024-03-07T00:55:23;77.05;;;28.20;;
80508;SDS011;69838;52.602;13.434;2024-03-07T00:56:10;75.05;;;28.58;;
80508;SDS011;69838;52.602;13.434;2024-03-07T00:56:57;77.40;;;26.52;;
80508;SDS011;69838;52.602;13.434;2024-03-07T00:57:42;81.65;;;26.60;;
80508;SDS011;69838;52.602;13.434;2024-03-07T00:58:28;85.57;;;29.50;;
80508;SDS011;69838;52.602;13.434;2024-03-07T00:59:14;78.50;;;27.58;;
80508;SDS011;69838;52.602;13.434;2024-03-07T00:59:59;76.28;;;28.02;;
80508;SDS011;69838;52.602;13.434;2024-03-07T01:00:46;76.38;;;27.70;;
80508;SDS011;69838;52.602;13.434;2024-03-07T01:01:31;73.10;;;28.35;;
80508;SDS011;69838;52.602;13.434;2024-03-07T01:02:18;74.80;;;27.77;;
80508;SDS011;69838;52.602;13.434;2024-03-07T01:03:05;73.38;;;29.73;;
80508;SDS011;69838;52.602;13.434;2024-03-07T01:03:50;85.25;;;28.05;;
80508;SDS011;69838;52.602;13.434;2024-03-07T01:04:37;78.22;;;28.63;;
80508;SDS011;69838;52.602;13.434;2024-03-07T01:05:22;72.43;;;26.98;;
80508;SDS011;69838;52.602;13.434;2024-03-07T01:06:08;80.90;;;27.98;;
80508;SDS011;69838;52.602;13.434;2024-03-07T01:06:55;79.32;;;28.60;;
80508;SDS011;69838;52.602;13.434;2024-03-07T01:07:40;76.57;;;27.40;;
80508;SDS011;69838;52.602;13.434;2024-03-07T01:08:27;76.18;;;27.58;;
80508;SDS011;69838;52.602;13.434;2024-03-07T01:09:17;77.53;;;26.35;;
80508;SDS011;69838;52.602;13.434;2024-03-07T01:10:04;75.47;;;28.80;;
80508;SDS011;69838;52.602;13.434;2024-03-07T01:10:51;74.32;;;28.30;;
80508;SDS011;69838;52.602;13.434;2024-03-07T01:11:39;76.57;;;28.25;;
80508;SDS011;69838;52.602;13.434;2024-03-07T01:12:25;80.53;;;30.38;;
80508;SDS011;69838;52.602;13.434;2024-03-07T01:13:15;73.47;;;29.05;;
80508;SDS011;69838;52.602;13.434;2024-03-07T01:14:04;77.38;;;28.75;;
80508;SDS011;69838;52.602;13.434;2024-03-07T01:14:49;75.97;;;26.30;;
80508;SDS011;69838;52.602;13.434;2024-03-07T01:15:35;78.47;;;28.55;;
80508;SDS011;69838;52.602;13.434;2024-03-07T01:16:21;85.63;;;29.85;;
80508;SDS011;69838;52.602;13.434;2024-03-07T01:17:07;84.30;;;28.05;;
80508;SDS011;69838;52.602;13.434;2024-03-07T01:17:53;78.95;;;29.25;;
80508;SDS011;69838;52.602;13.434;2024-03-07T01:18:39;87.25;;;29.70;;
80508;SDS011;69838;52.602;13.434;2024-03-07T01:19:24;84.43;;;29.58;;
80508;SDS011;69838;52.602;13.434;2024-03-07T01:20:11;81.10;;;28.65;;
80508;SDS011;69838;52.602;13.434;2024-03-07T01:20:56;83.07;;;30.35;;
80508;SDS011;69838;52.602;13.434;2024-03-07T01:21:42;82.07;;;29.58;;
80508;SDS011;69838;52.602;13.434;2024-03-07T01:22:28;73.80;;;28.17;;
80508;SDS011;69838;52.602;13.434;2024-03-07T01:23:14;76.35;;;26.67;;
80508;SDS011;69838;52.602;13.434;2024-03-07T01:23:59;81.28;;;29.33;;
80508;SDS011;69838;52.602;13.434;2024-03-07T01:24:46;82.53;;;28.23;;
80508;SDS011;69838;52.602;13.434;2024-03-07T01:25:32;77.15;;;30.42;;
80508;SDS011;69838;52.602;13.434;2024-03-07T01:26:18;75.75;;;26.95;;
80508;SDS011;69838;52.602;13.434;2024-03-07T01:27:06;85.32;;;28.23;;
80508;SDS011;69838;52.602;13.434;2024-03-07T01:27:52;80.97;;;29.83;;
80508;SDS011;69838;52.602;13.434;2024-03-07T01:28:37;81.25;;;28.98;;
80508;SDS011;69838;52.602;13.434;2024-03-07T01:29:24;79.82;;;27.67;;
80508;SDS011;69838;52.602;13.434;2024-03-07T01:30:10;86.32;;;30.75;;
80508;SDS011;69838;52.602;13.434;2024-03-07T01:30:56;77.22;;;27.85;;
80508;SDS011;69838;52.602;13.434;2024-03-07T01:31:44;75.25;;;29.80;;
80508;SDS011;69838;52.602;13.434;2024-03-07T01:32:29;75.68;;;29.02;;
80508;SDS011;69838;52.602;13.434;2024-03-07T01:33:15;80.28;;;31.52;;
80508;SDS011;69838;52.602;13.434;2024-03-07T01:34:01;76.30;;;28.58;;
80508;SDS011;69838;52.602;13.434;2024-03-07T01:34:47;77.47;;;27.38;;
80508;SDS011;69838;52.602;13.434;2024-03-07T01:35:33;76.93;;;27.88;;
80508;SDS011;69838;52.602;13.434;2024-03-07T01:36:19;83.20;;;28.23;;
80508;SDS011;69838;52.602;13.434;2024-03-07T01:37:05;72.90;;;30.52;;
80508;SDS011;69838;52.602;13.434;2024-03-07T01:37:53;73.07;;;28.63;;
80508;SDS011;69838;52.602;13.434;2024-03-07T01:38:39;75.65;;;29.05;;
80508;SDS011;69838;52.602;13.434;2024-03-07T01:39:25;75.13;;;30.17;;
80508;SDS011;69838;52.602;13.434;2024-03-07T01:40:11;74.53;;;28.17;;
80508;SDS011;69838;52.602;13.434;2024-03-07T01:40:59;77.45;;;30.63;;
80508;SDS011;69838;52.602;13.434;2024-03-07T01:41:44;75.60;;;29.38;;
80508;SDS011;69838;52.602;13.434;2024-03-07T01:42:32;71.47;;;28.13;;
80508;SDS011;69838;52.602;13.434;2024-03-07T01:43:18;74.78;;;29.30;;
80508;SDS011;69838;52.602;13.434;2024-03-07T01:44:04;77.03;;;31.00;;
80508;SDS011;69838;52.602;13.434;2024-03-07T01:44:51;68.25;;;28.20;;
80508;SDS011;69838;52.602;13.434;2024-03-07T01:45:36;81.85;;;31.80;;
80508;SDS011;69838;52.602;13.434;2024-03-07T01:46:22;71.35;;;26.90;;
80508;SDS011;69838;52.602;13.434;2024-03-07T01:47:09;74.95;;;27.88;;
80508;SDS011;69838;52.602;13.434;2024-03-07T01:47:55;76.78;;;29.85;;
80508;SDS011;69838;52.602;13.434;2024-03-07T01:48:41;75.95;;;29.23;;
80508;SDS011;69838;52.602;13.434;2024-03-07T01:49:27;73.40;;;30.60;;
80508;SDS011;69838;52.602;13.434;2024-03-07T01:50:13;76.00;;;29.75;;
80508;SDS011;69838;52.602;13.434;2024-03-07T01:51:00;71.05;;;27.42;;
80508;SDS011;69838;52.602;13.434;2024-03-07T01:51:48;74.05;;;28.33;;
80508;SDS011;69838;52.602;13.434;2024-03-07T01:52:34;75.10;;;29.42;;
80508;SDS011;69838;52.602;13.434;2024-03-07T01:53:19;74.55;;;29.48;;
80508;SDS011;69838;52.602;13.434;2024-03-07T01:54:06;70.88;;;30.00;;
80508;SDS011;69838;52.602;13.434;2024-03-07T01:54:53;80.30;;;31.80;;
80508;SDS011;69838;52.602;13.434;2024-03-07T01:55:39;68.43;;;26.90;;
80508;SDS011;69838;52.602;13.434;2024-03-07T01:56:26;82.13;;;31.50;;
80508;SDS011;69838;52.602;13.434;2024-03-07T01:57:11;85.85;;;31.25;;
80508;SDS011;69838;52.602;13.434;2024-03-07T01:57:59;78.32;;;30.02;;
80508;SDS011;69838;52.602;13.434;2024-03-07T01:58:48;84.38;;;30.35;;
80508;SDS011;69838;52.602;13.434;2024-03-07T01:59:37;81.43;;;29.45;;
80508;SDS011;69838;52.602;13.434;2024-03-07T02:00:22;78.38;;;28.48;;
80508;SDS011;69838;52.602;13.434;2024-03-07T02:01:09;76.68;;;29.63;;
80508;SDS011;69838;52.602;13.434;2024-03-07T02:01:54;72.22;;;29.17;;
80508;SDS011;69838;52.602;13.434;2024-03-07T02:02:40;74.97;;;29.73;;
80508;SDS011;69838;52.602;13.434;2024-03-07T02:03:27;80.80;;;29.92;;
80508;SDS011;69838;52.602;13.434;2024-03-07T02:04:13;79.40;;;29.63;;
80508;SDS011;69838;52.602;13.434;2024-03-07T02:04:59;82.88;;;30.15;;
80508;SDS011;69838;52.602;13.434;2024-03-07T02:05:46;89.88;;;32.25;;
80508;SDS011;69838;52.602;13.434;2024-03-07T02:06:31;77.28;;;29.38;;
80508;SDS011;69838;52.602;13.434;2024-03-07T02:07:18;92.40;;;30.38;;
80508;SDS011;69838;52.602;13.434;2024-03-07T02:08:04;85.10;;;30.45;;
80508;SDS011;69838;52.602;13.434;2024-03-07T02:08:50;84.88;;;30.85;;
80508;SDS011;69838;52.602;13.434;2024-03-07T02:09:35;85.18;;;29.77;;
80508;SDS011;69838;52.602;13.434;2024-03-07T02:10:22;85.25;;;29.83;;
80508;SDS011;69838;52.602;13.434;2024-03-07T02:11:07;84.20;;;29.27;;
80508;SDS011;69838;52.602;13.434;2024-03-07T02:11:54;83.80;;;30.58;;
80508;SDS011;69838;52.602;13.434;2024-03-07T02:12:41;82.82;;;30.55;;
80508;SDS011;69838;52.602;13.434;2024-03-07T02:13:28;89.10;;;30.23;;
80508;SDS011;69838;52.602;13.434;2024-03-07T02:14:14;83.05;;;30.17;;
80508;SDS011;69838;52.602;13.434;2024-03-07T02:15:00;86.28;;;28.45;;
80508;SDS011;69838;52.602;13.434;2024-03-07T02:15:46;98.38;;;30.90;;
80508;SDS011;69838;52.602;13.434;2024-03-07T02:16:31;89.32;;;30.77;;
80508;SDS011;69838;52.602;13.434;2024-03-07T02:17:17;84.57;;;29.75;;
80508;SDS011;69838;52.602;13.434;2024-03-07T02:18:05;93.70;;;30.75;;
80508;SDS011;69838;52.602;13.434;2024-03-07T02:18:51;92.90;;;32.92;;
80508;SDS011;69838;52.602;13.434;2024-03-07T02:19:36;95.60;;;31.83;;
80508;SDS011;69838;52.602;13.434;2024-03-07T02:20:23;87.32;;;31.77;;
80508;SDS011;69838;52.602;13.434;2024-03-07T02:21:10;93.85;;;31.55;;
80508;SDS011;69838;52.602;13.434;2024-03-07T02:21:55;92.50;;;28.48;;
80508;SDS011;69838;52.602;13.434;2024-03-07T02:22:42;91.53;;;30.67;;
80508;SDS011;69838;52.602;13.434;2024-03-07T02:23:27;95.47;;;30.25;;
80508;SDS011;69838;52.602;13.434;2024-03-07T02:24:12;94.50;;;31.88;;
80508;SDS011;69838;52.602;13.434;2024-03-07T02:25:00;101.93;;;33.00;;
80508;SDS011;69838;52.602;13.434;2024-03-07T02:25:45;88.68;;;30.63;;
80508;SDS011;69838;52.602;13.434;2024-03-07T02:26:31;92.47;;;31.17;;
80508;SDS011;69838;52.602;13.434;2024-03-07T02:27:17;93.35;;;29.55;;
80508;SDS011;69838;52.602;13.434;2024-03-07T02:28:03;95.68;;;31.73;;
80508;SDS011;69838;52.602;13.434;2024-03-07T02:28:50;81.30;;;29.98;;
80508;SDS011;69838;52.602;13.434;2024-03-07T02:29:35;94.63;;;30.83;;
80508;SDS011;69838;52.602;13.434;2024-03-07T02:30:21;86.53;;;31.85;;
80508;SDS011;69838;52.602;13.434;2024-03-07T02:31:07;96.18;;;30.17;;
80508;SDS011;69838;52.602;13.434;2024-03-07T02:31:53;91.05;;;32.53;;
80508;SDS011;69838;52.602;13.434;2024-03-07T02:32:38;99.28;;;31.10;;
80508;SDS011;69838;52.602;13.434;2024-03-07T02:33:24;103.18;;;31.77;;
80508;SDS011;69838;52.602;13.434;2024-03-07T02:34:10;103.88;;;33.53;;
80508;SDS011;69838;52.602;13.434;2024-03-07T02:34:57;100.18;;;31.75;;
80508;SDS011;69838;52.602;13.434;2024-03-07T02:35:42;98.50;;;32.47;;
80508;SDS011;69838;52.602;13.434;2024-03-07T02:36:30;92.60;;;31.17;;
80508;SDS011;69838;52.602;13.434;2024-03-07T02:37:15;101.50;;;31.50;;
80508;SDS011;69838;52.602;13.434;2024-03-07T02:38:01;110.07;;;32.50;;
80508;SDS011;69838;52.602;13.434;2024-03-07T02:38:48;104.22;;;32.55;;
80508;SDS011;69838;52.602;13.434;2024-03-07T02:39:34;110.18;;;31.98;;
80508;SDS011;69838;52.602;13.434;2024-03-07T02:40:20;100.25;;;34.00;;
80508;SDS011;69838;52.602;13.434;2024-03-07T02:41:06;103.57;;;33.47;;
80508;SDS011;69838;52.602;13.434;2024-03-07T02:41:52;110.55;;;32.55;;
80508;SDS011;69838;52.602;13.434;2024-03-07T02:42:37;99.10;;;31.52;;
80508;SDS011;69838;52.602;13.434;2024-03-07T02:43:24;93.97;;;30.80;;
80508;SDS011;69838;52.602;13.434;2024-03-07T02:44:09;89.53;;;31.55;;
80508;SDS011;69838;52.602;13.434;2024-03-07T02:44:54;88.43;;;29.80;;
80508;SDS011;69838;52.602;13.434;2024-03-07T02:45:41;103.45;;;31.52;;
80508;SDS011;69838;52.602;13.434;2024-03-07T02:46:26;82.20;;;30.30;;
80508;SDS011;69838;52.602;13.434;2024-03-07T02:47:12;85.70;;;31.40;;
80508;SDS011;69838;52.602;13.434;2024-03-07T02:47:58;97.78;;;33.28;;
80508;SDS011;69838;52.602;13.434;2024-03-07T02:48:44;98.10;;;31.58;;
80508;SDS011;69838;52.602;13.434;2024-03-07T02:49:29;91.40;;;31.75;;
80508;SDS011;69838;52.602;13.434;2024-03-07T02:50:15;102.88;;;33.05;;
80508;SDS011;69838;52.602;13.434;2024-03-07T02:51:01;90.18;;;31.20;;
80508;SDS011;69838;52.602;13.434;2024-03-07T02:51:48;113.25;;;32.85;;
80508;SDS011;69838;52.602;13.434;2024-03-07T02:52:33;98.25;;;32.45;;
80508;SDS011;69838;52.602;13.434;2024-03-07T02:53:20;98.43;;;31.08;;
80508;SDS011;69838;52.602;13.434;2024-03-07T02:54:05;102.55;;;33.28;;
80508;SDS011;69838;52.602;13.434;2024-03-07T02:54:51;96.07;;;30.55;;
80508;SDS011;69838;52.602;13.434;2024-03-07T02:55:37;109.50;;;32.33;;
80508;SDS011;69838;52.602;13.434;2024-03-07T02:56:23;110.80;;;33.03;;
80508;SDS011;69838;52.602;13.434;2024-03-07T02:57:08;100.15;;;31.85;;
80508;SDS011;69838;52.602;13.434;2024-03-07T02:57:56;109.40;;;31.83;;
80508;SDS011;69838;52.602;13.434;2024-03-07T02:58:45;97.95;;;31.30;;
80508;SDS011;69838;52.602;13.434;2024-03-07T02:59:31;88.20;;;29.83;;
80508;SDS011;69838;52.602;13.434;2024-03-07T03:00:17;100.97;;;31.00;;
80508;SDS011;69838;52.602;13.434;2024-03-07T03:01:05;92.40;;;31.40;;
80508;SDS011;69838;52.602;13.434;2024-03-07T03:01:52;95.45;;;31.90;;
80508;SDS011;69838;52.602;13.434;2024-03-07T03:02:37;101.65;;;30.88;;
80508;SDS011;69838;52.602;13.434;2024-03-07T03:03:23;96.47;;;29.55;;
80508;SDS011;69838;52.602;13.434;2024-03-07T03:04:09;98.82;;;30.15;;
80508;SDS011;69838;52.602;13.434;2024-03-07T03:04:54;92.28;;;31.10;;
80508;SDS011;69838;52.602;13.434;2024-03-07T03:05:40;101.53;;;32.53;;
80508;SDS011;69838;52.602;13.434;2024-03-07T03:06:26;95.78;;;32.78;;
80508;SDS011;69838;52.602;13.434;2024-03-07T03:07:13;105.30;;;33.28;;
80508;SDS011;69838;52.602;13.434;2024-03-07T03:07:58;102.10;;;32.85;;
80508;SDS011;69838;52.602;13.434;2024-03-07T03:08:45;101.07;;;31.17;;
80508;SDS011;69838;52.602;13.434;2024-03-07T03:09:30;103.60;;;32.95;;
80508;SDS011;69838;52.602;13.434;2024-03-07T03:10:19;84.00;;;30.13;;
80508;SDS011;69838;52.602;13.434;2024-03-07T03:11:06;92.45;;;30.02;;
80508;SDS011;69838;52.602;13.434;2024-03-07T03:11:54;94.80;;;30.60;;
80508;SDS011;69838;52.602;13.434;2024-03-07T03:12:40;99.63;;;30.52;;
80508;SDS011;69838;52.602;13.434;2024-03-07T03:13:26;106.18;;;30.70;;
80508;SDS011;69838;52.602;13.434;2024-03-07T03:14:12;105.90;;;31.73;;
80508;SDS011;69838;52.602;13.434;2024-03-07T03:14:59;100.43;;;29.92;;
80508;SDS011;69838;52.602;13.434;2024-03-07T03:15:45;113.00;;;32.97;;
80508;SDS011;69838;52.602;13.434;2024-03-07T03:16:30;104.22;;;31.17;;
80508;SDS011;69838;52.602;13.434;2024-03-07T03:17:17;109.03;;;33.22;;
80508;SDS011;69838;52.602;13.434;2024-03-07T03:18:03;119.07;;;32.80;;
80508;SDS011;69838;52.602;13.434;2024-03-07T03:18:48;130.93;;;33.83;;
80508;SDS011;69838;52.602;13.434;2024-03-07T03:19:35;127.88;;;35.30;;
80508;SDS011;69838;52.602;13.434;2024-03-07T03:20:21;150.45;;;34.53;;
80508;SDS011;69838;52.602;13.434;2024-03-07T03:21:09;131.23;;;33.80;;
80508;SDS011;69838;52.602;13.434;2024-03-07T03:21:56;119.75;;;32.33;;
80508;SDS011;69838;52.602;13.434;2024-03-07T03:22:43;132.93;;;36.20;;
80508;SDS011;69838;52.602;13.434;2024-03-07T03:23:29;125.13;;;33.42;;
80508;SDS011;69838;52.602;13.434;2024-03-07T03:24:15;126.13;;;33.15;;
80508;SDS011;69838;52.602;13.434;2024-03-07T03:25:01;116.13;;;33.08;;
80508;SDS011;69838;52.602;13.434;2024-03-07T03:25:46;105.55;;;32.45;;
80508;SDS011;69838;52.602;13.434;2024-03-07T03:26:34;111.72;;;32.67;;
80508;SDS011;69838;52.602;13.434;2024-03-07T03:27:20;107.68;;;32.95;;
80508;SDS011;69838;52.602;13.434;2024-03-07T03:28:06;110.45;;;31.33;;
80508;SDS011;69838;52.602;13.434;2024-03-07T03:28:54;120.85;;;33.88;;
80508;SDS011;69838;52.602;13.434;2024-03-07T03:29:40;129.25;;;34.45;;
80508;SDS011;69838;52.602;13.434;2024-03-07T03:30:26;123.00;;;34.53;;
80508;SDS011;69838;52.602;13.434;2024-03-07T03:31:12;122.60;;;34.33;;
80508;SDS011;69838;52.602;13.434;2024-03-07T03:31:59;111.75;;;32.80;;
80508;SDS011;69838;52.602;13.434;2024-03-07T03:32:45;114.50;;;33.55;;
80508;SDS011;69838;52.602;13.434;2024-03-07T03:33:31;122.25;;;34.47;;
80508;SDS011;69838;52.602;13.434;2024-03-07T03:34:18;122.55;;;34.75;;
80508;SDS011;69838;52.602;13.434;2024-03-07T03:35:04;132.00;;;35.15;;
80508;SDS011;69838;52.602;13.434;2024-03-07T03:35:50;125.82;;;35.03;;
80508;SDS011;69838;52.602;13.434;2024-03-07T03:36:36;133.18;;;33.60;;
80508;SDS011;69838;52.602;13.434;2024-03-07T03:37:21;119.72;;;33.83;;
80508;SDS011;69838;52.602;13.434;2024-03-07T03:38:08;115.55;;;31.98;;
80508;SDS011;69838;52.602;13.434;2024-03-07T03:38:55;113.60;;;33.95;;
80508;SDS011;69838;52.602;13.434;2024-03-07T03:39:41;141.40;;;35.35;;
80508;SDS011;69838;52.602;13.434;2024-03-07T03:40:27;138.73;;;36.05;;
80508;SDS011;69838;52.602;13.434;2024-03-07T03:41:14;125.50;;;36.17;;
80508;SDS011;69838;52.602;13.434;2024-03-07T03:42:00;118.63;;;33.55;;
80508;SDS011;69838;52.602;13.434;2024-03-07T03:42:46;138.80;;;36.83;;
80508;SDS011;69838;52.602;13.434;2024-03-07T03:43:33;132.23;;;37.22;;
80508;SDS011;69838;52.602;13.434;2024-03-07T03:44:19;126.10;;;34.40;;
80508;SDS011;69838;52.602;13.434;2024-03-07T03:45:05;136.15;;;34.72;;
80508;SDS011;69838;52.602;13.434;2024-03-07T03:45:53;130.65;;;34.60;;
80508;SDS011;69838;52.602;13.434;2024-03-07T03:46:38;135.50;;;35.63;;
80508;SDS011;69838;52.602;13.434;2024-03-07T03:47:23;140.45;;;35.20;;
80508;SDS011;69838;52.602;13.434;2024-03-07T03:48:10;131.02;;;35.25;;
80508;SDS011;69838;52.602;13.434;2024-03-07T03:48:55;129.02;;;34.10;;
80508;SDS011;69838;52.602;13.434;2024-03-07T03:49:42;150.25;;;37.97;;
80508;SDS011;69838;52.602;13.434;2024-03-07T03:50:28;121.50;;;34.47;;
80508;SDS011;69838;52.602;13.434;2024-03-07T03:51:13;130.93;;;35.13;;
80508;SDS011;69838;52.602;13.434;2024-03-07T03:52:00;133.02;;;34.88;;
80508;SDS011;69838;52.602;13.434;2024-03-07T03:52:45;132.63;;;35.92;;
80508;SDS011;69838;52.602;13.434;2024-03-07T03:53:32;127.45;;;35.92;;
80508;SDS011;69838;52.602;13.434;2024-03-07T03:54:19;137.45;;;36.78;;
80508;SDS011;69838;52.602;13.434;2024-03-07T03:55:04;124.32;;;34.15;;
80508;SDS011;69838;52.602;13.434;2024-03-07T03:55:50;113.28;;;33.25;;
80508;SDS011;69838;52.602;13.434;2024-03-07T03:56:37;113.85;;;35.33;;
80508;SDS011;69838;52.602;13.434;2024-03-07T03:57:24;116.75;;;34.05;;
80508;SDS011;69838;52.602;13.434;2024-03-07T03:58:10;122.50;;;35.67;;
80508;SDS011;69838;52.602;13.434;2024-03-07T03:58:55;120.32;;;35.38;;
80508;SDS011;69838;52.602;13.434;2024-03-07T03:59:42;125.90;;;36.60;;
80508;SDS011;69838;52.602;13.434;2024-03-07T04:00:28;126.70;;;34.88;;
80508;SDS011;69838;52.602;13.434;2024-03-07T04:01:14;125.90;;;36.03;;
80508;SDS011;69838;52.602;13.434;2024-03-07T04:02:01;124.28;;;33.97;;
80508;SDS011;69838;52.602;13.434;2024-03-07T04:02:46;112.35;;;31.30;;
80508;SDS011;69838;52.602;13.434;2024-03-07T04:03:33;122.43;;;35.42;;
80508;SDS011;69838;52.602;13.434;2024-03-07T04:04:19;127.50;;;34.22;;
80508;SDS011;69838;52.602;13.434;2024-03-07T04:05:05;137.48;;;35.78;;
80508;SDS011;69838;52.602;13.434;2024-03-07T04:05:51;130.90;;;36.25;;
80508;SDS011;69838;52.602;13.434;2024-03-07T04:06:37;140.57;;;34.45;;
80508;SDS011;69838;52.602;13.434;2024-03-07T04:07:22;135.48;;;35.33;;
80508;SDS011;69838;52.602;13.434;2024-03-07T04:08:08;130.38;;;34.50;;
80508;SDS011;69838;52.602;13.434;2024-03-07T04:08:57;129.45;;;35.38;;
80508;SDS011;69838;52.602;13.434;2024-03-07T04:09:43;125.53;;;35.55;;
80508;SDS011;69838;52.602;13.434;2024-03-07T04:10:29;127.97;;;35.13;;
80508;SDS011;69838;52.602;13.434;2024-03-07T04:11:15;132.70;;;35.65;;
80508;SDS011;69838;52.602;13.434;2024-03-07T04:12:01;122.05;;;35.88;;
80508;SDS011;69838;52.602;13.434;2024-03-07T04:12:47;127.82;;;34.38;;
80508;SDS011;69838;52.602;13.434;2024-03-07T04:13:33;129.60;;;35.28;;
80508;SDS011;69838;52.602;13.434;2024-03-07T04:14:19;119.95;;;33.40;;
80508;SDS011;69838;52.602;13.434;2024-03-07T04:15:06;127.00;;;34.90;;
80508;SDS011;69838;52.602;13.434;2024-03-07T04:15:54;129.95;;;34.55;;
80508;SDS011;69838;52.602;13.434;2024-03-07T04:16:39;122.40;;;34.35;;
80508;SDS011;69838;52.602;13.434;2024-03-07T04:17:25;138.02;;;35.80;;
80508;SDS011;69838;52.602;13.434;2024-03-07T04:18:11;136.85;;;36.63;;
80508;SDS011;69838;52.602;13.434;2024-03-07T04:18:56;144.55;;;35.33;;
80508;SDS011;69838;52.602;13.434;2024-03-07T04:19:42;145.43;;;36.00;;
80508;SDS011;69838;52.602;13.434;2024-03-07T04:20:29;131.93;;;33.67;;
80508;SDS011;69838;52.602;13.434;2024-03-07T04:21:14;134.13;;;34.47;;
80508;SDS011;69838;52.602;13.434;2024-03-07T04:21:59;135.93;;;36.03;;
80508;SDS011;69838;52.602;13.434;2024-03-07T04:22:46;123.63;;;35.80;;
80508;SDS011;69838;52.602;13.434;2024-03-07T04:23:32;131.05;;;33.22;;
80508;SDS011;69838;52.602;13.434;2024-03-07T04:24:19;132.98;;;34.90;;
80508;SDS011;69838;52.602;13.434;2024-03-07T04:25:05;126.75;;;35.17;;